CheckWX is a tool to help pilots better visualize weather data.  It is not intended as a substitute for an official pre-flight weather briefing.

06:29:17 UTC

UAKK TAF
Sary-Arka Airport
Karaganda, Kazakhstan
TAF UAKK 180500Z 1806/1906 26006MPS 9999 SCT011 BKN020 TXM00/1809Z TNM08/1901Z TEMPO 1806/1809 25009MPS BECMG 1811/1813 27005MPS BKN007 OVC020 TEMPO 1815/1820 5000 -SHSN BKN005 BKN015CB BECMG 1820/1822 VRB02MPS TEMPO 1820/1906 3000 SHSN BR BKN004 BKN011CB

Nov-18@
06:00 UTC

Nov-18 @ 06:00 UTC

Nov-18@
11:00 UTC

Nov-18 @ 11:00 UTC

TAF UAKK 180500Z 1806/1906 26006MPS 9999 SCT011 BKN020 TXM00/1809Z TNM08/1901Z
Wind
  • 260° at 12 KTS
Cloud Levels
  • Scattered at 1,100' AGL
  • Broken at 2,000' AGL

Nov-18@
06:00 UTC

Nov-18 @ 06:00 UTC

Nov-18@
09:00 UTC

Nov-18 @ 09:00 UTC

TEMPO 1806/1809 25009MPS

Temporary

Temporary Changes expected for less than half the time period

Wind
  • 250° at 17 KTS

Nov-18@
11:00 UTC

Nov-18 @ 11:00 UTC

Nov-18@
20:00 UTC

Nov-18 @ 20:00 UTC

BECMG 1811/1813 27005MPS BKN007 OVC020

Becoming

Becoming Conditions expected by Mon, Nov 18, 2019 @ 13:00 UTC

Wind
  • 270° at 10 KTS
Cloud Levels
  • Broken at 700' AGL
  • Overcast at 2,000' AGL

Nov-18@
15:00 UTC

Nov-18 @ 15:00 UTC

Nov-18@
20:00 UTC

Nov-18 @ 20:00 UTC

TEMPO 1815/1820 5000 -SHSN BKN005 BKN015CB

Temporary

Temporary Changes expected for less than half the time period

Conditions
Light Snow
Cloud Levels
  • Broken at 500' AGL
  • Broken at 1,500' AGL

Nov-18@
20:00 UTC

Nov-18 @ 20:00 UTC

Nov-19@
06:00 UTC

Nov-19 @ 06:00 UTC

BECMG 1820/1822 VRB02MPS

Becoming

Becoming Conditions expected by Mon, Nov 18, 2019 @ 22:00 UTC

Wind
  • Variable at 4 KTS
Cloud Levels
  • Broken at 700' AGL
  • Overcast at 2,000' AGL

Nov-18@
20:00 UTC

Nov-18 @ 20:00 UTC

Nov-19@
06:00 UTC

Nov-19 @ 06:00 UTC

TEMPO 1820/1906 3000 SHSN BR BKN004 BKN011CB

Temporary

Temporary Changes expected for less than half the time period

Conditions
Snow, Mist
Cloud Levels
  • Broken at 400' AGL
  • Broken at 1,100' AGL